createdAt,value
2019-05-17T00:00:27.369Z,964.08
2019-05-17T00:01:27.032Z,964.04
2019-05-17T00:02:26.612Z,964.07
2019-05-17T00:03:27.026Z,964.05
2019-05-17T00:04:26.986Z,964.02
2019-05-17T00:05:26.556Z,964.03
2019-05-17T00:06:27.561Z,964.05
2019-05-17T00:07:27.278Z,964.01
2019-05-17T00:08:33.923Z,964.01
2019-05-17T00:09:26.780Z,964.03
2019-05-17T00:10:26.529Z,963.97
2019-05-17T00:11:27.300Z,963.95
2019-05-17T00:12:27.104Z,963.92
2019-05-17T00:13:26.843Z,963.93
2019-05-17T00:14:27.096Z,963.86
2019-05-17T00:15:27.355Z,963.91
2019-05-17T00:16:26.820Z,963.87
2019-05-17T00:17:26.735Z,963.82
2019-05-17T00:18:26.463Z,963.81
2019-05-17T00:19:26.369Z,963.82
2019-05-17T00:20:26.626Z,963.80
2019-05-17T00:21:27.474Z,963.78
2019-05-17T00:22:26.988Z,963.74
2019-05-17T00:23:26.865Z,963.77
2019-05-17T00:24:26.562Z,963.71
2019-05-17T00:25:27.396Z,963.68
2019-05-17T00:26:26.979Z,963.66
2019-05-17T00:27:26.505Z,963.65
2019-05-17T00:28:26.923Z,963.64
2019-05-17T00:29:26.422Z,963.64
2019-05-17T00:30:26.553Z,963.62
2019-05-17T00:31:26.337Z,963.62
2019-05-17T00:32:27.412Z,963.64
2019-05-17T00:33:27.252Z,963.59
2019-05-17T00:34:27.074Z,963.61
2019-05-17T00:35:26.799Z,963.60
2019-05-17T00:36:26.998Z,963.59
2019-05-17T00:37:26.409Z,963.59
2019-05-17T00:38:27.429Z,963.54
2019-05-17T00:39:27.185Z,963.51
2019-05-17T00:40:27.004Z,963.56
2019-05-17T00:41:26.960Z,963.54
2019-05-17T00:42:26.435Z,963.52
2019-05-17T00:43:26.275Z,963.53
2019-05-17T00:44:27.170Z,963.49
2019-05-17T00:45:26.704Z,963.53
2019-05-17T00:46:26.699Z,963.50
2019-05-17T00:47:26.595Z,963.54
2019-05-17T00:48:26.446Z,963.46
2019-05-17T00:49:26.460Z,963.48
2019-05-17T00:50:27.336Z,963.48
2019-05-17T00:51:27.251Z,963.46
2019-05-17T00:52:27.153Z,963.45
2019-05-17T00:53:26.935Z,963.45
2019-05-17T00:54:26.906Z,963.44
2019-05-17T00:55:26.844Z,963.46
2019-05-17T00:56:26.653Z,963.45
2019-05-17T00:57:27.206Z,963.43
2019-05-17T00:58:26.272Z,963.41
2019-05-17T00:59:26.298Z,963.45
2019-05-17T01:00:27.630Z,963.41
2019-05-17T01:01:26.908Z,963.40
2019-05-17T01:02:26.847Z,963.42
2019-05-17T01:03:26.786Z,963.39
2019-05-17T01:04:24.870Z,963.37
2019-05-17T01:05:24.848Z,963.35
2019-05-17T01:06:24.820Z,963.37
2019-05-17T01:07:26.888Z,963.36
2019-05-17T01:08:26.500Z,963.32
2019-05-17T01:09:27.162Z,963.36
2019-05-17T01:10:27.093Z,963.33
2019-05-17T01:11:26.943Z,963.36
2019-05-17T01:12:26.968Z,963.36
2019-05-17T01:13:26.566Z,963.36
2019-05-17T01:14:26.471Z,963.36
2019-05-17T01:15:24.597Z,963.35
2019-05-17T01:16:24.598Z,963.32
2019-05-17T01:17:26.704Z,963.33
2019-05-17T01:18:26.536Z,963.31
2019-05-17T01:19:26.867Z,963.32
2019-05-17T01:20:24.483Z,963.24
2019-05-17T01:21:26.307Z,963.27
2019-05-17T01:22:26.248Z,963.26
2019-05-17T01:23:24.405Z,963.27
2019-05-17T01:24:24.397Z,963.25
2019-05-17T01:25:24.354Z,963.26
2019-05-17T01:26:26.574Z,963.25
2019-05-17T01:27:26.265Z,963.24
2019-05-17T01:28:24.280Z,963.27
2019-05-17T01:29:24.252Z,963.22
2019-05-17T01:30:26.498Z,963.26
2019-05-17T01:31:26.493Z,963.24
2019-05-17T01:32:26.526Z,963.23
2019-05-17T01:33:26.110Z,963.22
2019-05-17T01:34:24.140Z,963.24
2019-05-17T01:35:26.465Z,963.23
2019-05-17T01:36:26.224Z,963.20
2019-05-17T01:37:24.059Z,963.16
2019-05-17T01:38:24.034Z,963.20
2019-05-17T01:39:24.008Z,963.17
2019-05-17T01:40:26.314Z,963.18
2019-05-17T01:41:23.952Z,963.19
2019-05-17T01:42:23.934Z,963.20
2019-05-17T01:43:23.912Z,963.18
2019-05-17T01:44:23.879Z,963.12
2019-05-17T01:45:23.852Z,963.08
2019-05-17T01:46:23.836Z,963.09
2019-05-17T01:47:23.814Z,963.05
2019-05-17T01:48:23.783Z,963.08
2019-05-17T01:49:23.760Z,963.07
2019-05-17T01:50:30.927Z,963.09
2019-05-17T01:52:23.820Z,963.07
2019-05-17T01:53:16.751Z,963.07
2019-05-17T01:55:09.465Z,963.06
2019-05-17T01:56:17.033Z,963.10
2019-05-17T01:58:09.790Z,963.09
2019-05-17T01:59:02.290Z,963.09
2019-05-17T02:00:02.267Z,963.10
2019-05-17T02:01:02.232Z,963.11
2019-05-17T02:02:02.219Z,963.07
2019-05-17T02:03:02.193Z,963.11
2019-05-17T02:04:02.166Z,963.08
2019-05-17T02:05:02.139Z,963.09
2019-05-17T02:06:02.112Z,963.07
2019-05-17T02:07:02.088Z,963.07
2019-05-17T02:08:02.068Z,963.05
2019-05-17T02:09:02.047Z,963.04
2019-05-17T02:10:02.061Z,963.03
2019-05-17T02:11:01.991Z,963.04
2019-05-17T02:12:01.966Z,963.02
2019-05-17T02:13:01.941Z,963.06
2019-05-17T02:14:01.916Z,963.02
2019-05-17T02:15:01.903Z,963.01
2019-05-17T02:16:01.861Z,963.01
2019-05-17T02:17:01.862Z,962.99
2019-05-17T02:18:01.810Z,962.98
2019-05-17T02:19:01.796Z,963.00
2019-05-17T02:20:01.803Z,962.97
2019-05-17T02:21:01.741Z,963.02
2019-05-17T02:22:01.721Z,963.01
2019-05-17T02:23:01.695Z,962.97
2019-05-17T02:24:01.667Z,962.95
2019-05-17T02:25:01.723Z,963.00
2019-05-17T02:26:01.610Z,962.98
2019-05-17T02:27:01.592Z,962.95
2019-05-17T02:28:01.969Z,962.98
2019-05-17T02:29:01.543Z,962.95
2019-05-17T02:30:02.510Z,962.95
2019-05-17T02:31:03.414Z,962.98
2019-05-17T02:32:03.903Z,962.94
2019-05-17T02:33:03.815Z,962.91
2019-05-17T02:34:03.061Z,962.91
2019-05-17T02:35:03.432Z,962.92
2019-05-17T02:36:02.784Z,962.88
2019-05-17T02:37:03.040Z,962.93
2019-05-17T02:38:02.824Z,962.90
2019-05-17T02:39:03.671Z,962.93
2019-05-17T02:40:06.120Z,962.95
2019-05-17T02:41:03.273Z,962.91
2019-05-17T02:42:02.862Z,962.91
2019-05-17T02:43:03.228Z,962.88
2019-05-17T02:44:02.312Z,962.87
2019-05-17T02:45:03.215Z,962.90
2019-05-17T02:46:03.631Z,962.93
2019-05-17T02:47:03.143Z,962.89
2019-05-17T02:48:03.933Z,962.88
2019-05-17T02:49:03.007Z,962.91
2019-05-17T02:50:01.025Z,962.92
2019-05-17T02:51:03.580Z,962.92
2019-05-17T02:52:03.205Z,962.90
2019-05-17T02:53:03.900Z,962.88
2019-05-17T02:54:04.252Z,962.94
2019-05-17T02:55:04.016Z,962.87
2019-05-17T02:56:03.172Z,962.91
2019-05-17T02:57:03.258Z,962.92
2019-05-17T02:58:03.200Z,962.90
2019-05-17T02:59:03.294Z,962.93
2019-05-17T03:00:04.317Z,962.90
2019-05-17T03:01:03.737Z,962.90
2019-05-17T03:02:03.559Z,962.86
2019-05-17T03:03:03.333Z,962.86
2019-05-17T03:04:03.585Z,962.86
2019-05-17T03:05:03.905Z,962.87
2019-05-17T03:06:03.194Z,962.84
2019-05-17T03:07:03.466Z,962.80
2019-05-17T03:08:03.880Z,962.80
2019-05-17T03:09:03.365Z,962.81
2019-05-17T03:10:13.796Z,962.79
2019-05-17T03:11:03.245Z,962.83
2019-05-17T03:12:03.290Z,962.81
2019-05-17T03:13:03.640Z,962.80
2019-05-17T03:14:03.684Z,962.76
2019-05-17T03:15:03.802Z,962.80
2019-05-17T03:16:03.062Z,962.81
2019-05-17T03:17:03.155Z,962.82
2019-05-17T03:18:03.598Z,962.80
2019-05-17T03:19:03.810Z,962.82
2019-05-17T03:20:03.594Z,962.84
2019-05-17T03:21:03.556Z,962.84
2019-05-17T03:22:04.417Z,962.81
2019-05-17T03:23:03.315Z,962.82
2019-05-17T03:24:03.247Z,962.81
2019-05-17T03:25:03.465Z,962.78
2019-05-17T03:26:03.200Z,962.81
2019-05-17T03:27:02.820Z,962.81
2019-05-17T03:28:03.008Z,962.78
2019-05-17T03:29:03.131Z,962.76
2019-05-17T03:30:04.283Z,962.76
2019-05-17T03:31:06.820Z,962.78
2019-05-17T03:32:07.333Z,962.76
2019-05-17T03:33:06.199Z,962.80
2019-05-17T03:34:05.595Z,962.79
2019-05-17T03:35:06.017Z,962.73
2019-05-17T03:36:05.357Z,962.80
2019-05-17T03:37:05.415Z,962.79
2019-05-17T03:37:59.824Z,962.77
2019-05-17T03:39:02.888Z,962.79
2019-05-17T03:40:04.601Z,962.76
2019-05-17T03:41:13.384Z,962.78
2019-05-17T03:42:02.417Z,962.77
2019-05-17T03:43:02.544Z,962.77
2019-05-17T03:44:02.894Z,962.77
2019-05-17T03:45:02.634Z,962.73
2019-05-17T03:46:02.431Z,962.73
2019-05-17T03:47:02.146Z,962.75
2019-05-17T03:47:59.577Z,962.72
2019-05-17T03:48:59.550Z,962.73
2019-05-17T03:50:02.793Z,962.70
2019-05-17T03:51:02.357Z,962.74
2019-05-17T03:52:02.486Z,962.72
2019-05-17T03:53:02.183Z,962.70
2019-05-17T03:54:02.063Z,962.71
2019-05-17T03:54:59.409Z,962.71
2019-05-17T03:56:02.651Z,962.74
2019-05-17T03:57:02.653Z,962.71
2019-05-17T03:58:02.637Z,962.72
2019-05-17T03:58:59.304Z,962.69
2019-05-17T03:59:59.278Z,962.69
2019-05-17T04:00:59.251Z,962.69
2019-05-17T04:01:59.240Z,962.70
2019-05-17T04:02:59.205Z,962.70
2019-05-17T04:04:02.549Z,962.69
2019-05-17T04:04:59.149Z,962.72
2019-05-17T04:05:59.140Z,962.70
2019-05-17T04:06:59.105Z,962.69
2019-05-17T04:07:59.077Z,962.69
2019-05-17T04:08:59.047Z,962.70
2019-05-17T04:09:59.057Z,962.67
2019-05-17T04:11:15.100Z,962.70
2019-05-17T04:11:58.978Z,962.70
2019-05-17T04:12:58.951Z,962.72
2019-05-17T04:13:58.943Z,962.74
2019-05-17T04:14:58.908Z,962.73
2019-05-17T04:15:58.892Z,962.79
2019-05-17T04:16:58.853Z,962.73
2019-05-17T04:17:58.825Z,962.79
2019-05-17T04:18:58.797Z,962.78
2019-05-17T04:19:58.786Z,962.78
2019-05-17T04:20:58.757Z,962.79
2019-05-17T04:21:58.727Z,962.79
2019-05-17T04:22:58.704Z,962.78
2019-05-17T04:23:58.678Z,962.75
2019-05-17T04:24:58.657Z,962.75
2019-05-17T04:25:58.635Z,962.77
2019-05-17T04:26:58.607Z,962.77
2019-05-17T04:27:58.579Z,962.79
2019-05-17T04:28:58.551Z,962.81
2019-05-17T04:29:58.536Z,962.77
2019-05-17T04:30:58.507Z,962.76
2019-05-17T04:31:58.482Z,962.76
2019-05-17T04:32:58.455Z,962.76
2019-05-17T04:33:58.434Z,962.77
2019-05-17T04:34:58.414Z,962.76
2019-05-17T04:35:58.383Z,962.79
2019-05-17T04:36:58.362Z,962.76
2019-05-17T04:37:58.335Z,962.77
2019-05-17T04:38:58.310Z,962.78
2019-05-17T04:39:58.285Z,962.83
2019-05-17T04:40:58.256Z,962.79
2019-05-17T04:41:58.231Z,962.79
2019-05-17T04:42:58.220Z,962.82
2019-05-17T04:43:58.184Z,962.79
2019-05-17T04:44:58.163Z,962.80
2019-05-17T04:45:58.140Z,962.80
2019-05-17T04:46:58.110Z,962.81
2019-05-17T04:47:58.088Z,962.78
2019-05-17T04:48:58.064Z,962.80
2019-05-17T04:49:58.038Z,962.79
2019-05-17T04:50:58.022Z,962.79
2019-05-17T04:51:57.990Z,962.78
2019-05-17T04:52:57.973Z,962.78
2019-05-17T04:53:57.940Z,962.79
2019-05-17T04:54:57.908Z,962.78
2019-05-17T04:55:57.887Z,962.77
2019-05-17T04:56:57.866Z,962.78
2019-05-17T04:57:57.849Z,962.78
2019-05-17T04:58:57.836Z,962.81
2019-05-17T04:59:57.783Z,962.78
2019-05-17T05:00:57.770Z,962.79
2019-05-17T05:01:57.741Z,962.82
2019-05-17T05:02:57.738Z,962.84
2019-05-17T05:03:57.692Z,962.81
2019-05-17T05:04:57.681Z,962.83
2019-05-17T05:05:57.642Z,962.86
2019-05-17T05:06:57.616Z,962.80
2019-05-17T05:07:57.588Z,962.82
2019-05-17T05:08:57.566Z,962.83
2019-05-17T05:09:57.551Z,962.84
2019-05-17T05:10:57.524Z,962.86
2019-05-17T05:12:02.715Z,962.84
2019-05-17T05:12:57.473Z,962.83
2019-05-17T05:13:57.439Z,962.84
2019-05-17T05:14:57.417Z,962.84
2019-05-17T05:15:57.392Z,962.84
2019-05-17T05:16:57.371Z,962.85
2019-05-17T05:17:57.341Z,962.85
2019-05-17T05:18:57.320Z,962.83
2019-05-17T05:19:57.305Z,962.89
2019-05-17T05:20:57.276Z,962.87
2019-05-17T05:21:57.242Z,962.84
2019-05-17T05:22:57.222Z,962.85
2019-05-17T05:23:57.202Z,962.85
2019-05-17T05:24:57.182Z,962.87
2019-05-17T05:25:57.140Z,962.85
2019-05-17T05:26:57.120Z,962.90
2019-05-17T05:27:57.095Z,962.87
2019-05-17T05:28:57.068Z,962.89
2019-05-17T05:29:57.050Z,962.84
2019-05-17T05:30:57.023Z,962.87
2019-05-17T05:31:56.988Z,962.93
2019-05-17T05:32:56.974Z,962.91
2019-05-17T05:33:56.951Z,962.91
2019-05-17T05:34:56.924Z,962.90
2019-05-17T05:35:56.897Z,962.96
2019-05-17T05:36:56.876Z,962.96
2019-05-17T05:37:56.850Z,962.95
2019-05-17T05:38:56.824Z,962.96
2019-05-17T05:39:56.806Z,962.96
2019-05-17T05:40:56.774Z,962.93
2019-05-17T05:42:06.949Z,962.95
2019-05-17T05:42:57.310Z,963.00
2019-05-17T05:43:56.700Z,962.96
2019-05-17T05:44:56.672Z,962.98
2019-05-17T05:45:56.651Z,962.98
2019-05-17T05:46:56.631Z,963.01
2019-05-17T05:47:56.607Z,963.03
2019-05-17T05:48:56.579Z,963.03
2019-05-17T05:49:56.555Z,963.01
2019-05-17T05:50:56.527Z,963.01
2019-05-17T05:51:56.503Z,963.05
2019-05-17T05:52:56.487Z,962.99
2019-05-17T05:53:56.455Z,963.01
2019-05-17T05:54:56.433Z,963.04
2019-05-17T05:55:56.402Z,963.05
2019-05-17T05:56:56.395Z,963.02
2019-05-17T05:57:56.357Z,963.08
2019-05-17T05:58:56.331Z,963.10
2019-05-17T05:59:56.310Z,963.13
2019-05-17T06:00:56.282Z,963.08
2019-05-17T06:01:56.258Z,963.12
2019-05-17T06:02:56.234Z,963.17
2019-05-17T06:03:56.211Z,963.18
2019-05-17T06:04:56.179Z,963.15
2019-05-17T06:05:56.159Z,963.16
2019-05-17T06:06:56.141Z,963.16
2019-05-17T06:07:56.122Z,963.21
2019-05-17T06:08:56.083Z,963.15
2019-05-17T06:09:56.062Z,963.16
2019-05-17T06:10:56.036Z,963.19
2019-05-17T06:11:56.012Z,963.19
2019-05-17T06:12:55.989Z,963.19
2019-05-17T06:13:55.964Z,963.21
2019-05-17T06:14:55.936Z,963.23
2019-05-17T06:15:55.913Z,963.21
2019-05-17T06:16:55.890Z,963.19
2019-05-17T06:17:55.866Z,963.23
2019-05-17T06:18:55.842Z,963.22
2019-05-17T06:19:55.816Z,963.22
2019-05-17T06:20:55.790Z,963.20
2019-05-17T06:21:55.768Z,963.21
2019-05-17T06:22:55.746Z,963.16
2019-05-17T06:23:55.721Z,963.21
2019-05-17T06:24:55.696Z,963.16
2019-05-17T06:25:55.691Z,963.13
2019-05-17T06:26:55.646Z,963.16
2019-05-17T06:27:55.622Z,963.15
2019-05-17T06:28:55.597Z,963.18
2019-05-17T06:29:55.574Z,963.13
2019-05-17T06:30:55.550Z,963.15
2019-05-17T06:31:55.525Z,963.16
2019-05-17T06:32:55.500Z,963.13
2019-05-17T06:33:55.479Z,963.13
2019-05-17T06:34:55.453Z,963.13
2019-05-17T06:35:55.427Z,963.14
2019-05-17T06:36:55.395Z,963.14
2019-05-17T06:37:55.375Z,963.11
2019-05-17T06:38:55.349Z,963.08
2019-05-17T06:39:55.327Z,963.11
2019-05-17T06:40:55.308Z,963.10
2019-05-17T06:41:55.281Z,963.12
2019-05-17T06:42:55.253Z,963.14
2019-05-17T06:43:55.231Z,963.15
2019-05-17T06:44:55.210Z,963.17
2019-05-17T06:45:55.183Z,963.15
2019-05-17T06:46:55.155Z,963.14
2019-05-17T06:47:55.132Z,963.15
2019-05-17T06:48:55.118Z,963.16
2019-05-17T06:49:55.099Z,963.13
2019-05-17T06:50:55.055Z,963.09
2019-05-17T06:51:55.037Z,963.06
2019-05-17T06:52:55.011Z,963.14
2019-05-17T06:53:54.988Z,963.10
2019-05-17T06:54:54.961Z,963.08
2019-05-17T06:55:54.938Z,963.11
2019-05-17T06:56:54.912Z,963.11
2019-05-17T06:57:54.895Z,963.12
2019-05-17T06:58:54.867Z,963.12
2019-05-17T06:59:54.846Z,963.14
2019-05-17T07:00:54.817Z,963.10
2019-05-17T07:01:54.811Z,963.10
2019-05-17T07:02:54.773Z,963.06
2019-05-17T07:03:54.757Z,963.05
2019-05-17T07:04:54.721Z,963.04
2019-05-17T07:05:54.701Z,963.06
2019-05-17T07:06:54.673Z,963.04
2019-05-17T07:07:54.668Z,963.06
2019-05-17T07:08:54.636Z,963.08
2019-05-17T07:09:54.602Z,963.01
2019-05-17T07:10:54.581Z,963.06
2019-05-17T07:11:54.559Z,963.08
2019-05-17T07:12:58.722Z,963.06
2019-05-17T07:13:54.506Z,963.04
2019-05-17T07:14:54.478Z,963.03
2019-05-17T07:15:54.462Z,963.06
2019-05-17T07:16:54.441Z,963.10
2019-05-17T07:17:54.410Z,963.09
2019-05-17T07:18:54.382Z,963.07
2019-05-17T07:19:54.365Z,963.10
2019-05-17T07:20:54.344Z,963.11
2019-05-17T07:21:54.328Z,963.08
2019-05-17T07:22:54.295Z,963.10
2019-05-17T07:23:54.272Z,963.07
2019-05-17T07:24:54.248Z,963.08
2019-05-17T07:25:54.227Z,963.06
2019-05-17T07:26:54.198Z,963.06
2019-05-17T07:27:54.178Z,963.00
2019-05-17T07:28:54.155Z,963.03
2019-05-17T07:29:54.128Z,963.01
2019-05-17T07:30:54.106Z,963.04
2019-05-17T07:31:54.084Z,963.02
2019-05-17T07:32:54.062Z,963.02
2019-05-17T07:33:54.896Z,962.96
2019-05-17T07:34:54.013Z,963.01
2019-05-17T07:35:53.988Z,962.92
2019-05-17T07:36:53.964Z,962.95
2019-05-17T07:37:53.937Z,962.94
2019-05-17T07:38:53.918Z,962.94
2019-05-17T07:40:01.190Z,962.92
2019-05-17T07:40:53.871Z,962.94
2019-05-17T07:41:53.848Z,962.98
2019-05-17T07:43:06.907Z,962.96
2019-05-17T07:43:53.804Z,962.97
2019-05-17T07:44:53.794Z,962.97
2019-05-17T07:45:53.754Z,962.93
2019-05-17T07:46:53.732Z,962.93
2019-05-17T07:47:53.710Z,962.88
2019-05-17T07:48:53.677Z,962.88
2019-05-17T07:49:54.629Z,962.89
2019-05-17T07:50:53.635Z,962.89
2019-05-17T07:51:53.616Z,962.88
2019-05-17T07:52:53.591Z,962.90
2019-05-17T07:53:53.568Z,962.89
2019-05-17T07:54:53.539Z,962.92
2019-05-17T07:55:53.522Z,962.94
2019-05-17T07:56:53.503Z,962.90
2019-05-17T07:57:53.473Z,962.89
2019-05-17T07:58:53.449Z,962.89
2019-05-17T07:59:53.433Z,962.85
2019-05-17T08:00:53.407Z,962.84
2019-05-17T08:01:53.389Z,962.79
2019-05-17T08:02:53.363Z,962.80
2019-05-17T08:03:53.343Z,962.82
2019-05-17T08:04:53.319Z,962.81
2019-05-17T08:05:53.296Z,962.81
2019-05-17T08:06:53.281Z,962.77
2019-05-17T08:07:53.265Z,962.81
2019-05-17T08:08:53.230Z,962.79
2019-05-17T08:09:53.219Z,962.71
2019-05-17T08:10:53.186Z,962.74
2019-05-17T08:11:53.172Z,962.72
2019-05-17T08:12:53.143Z,962.69
2019-05-17T08:13:53.127Z,962.72
2019-05-17T08:14:53.115Z,962.70
2019-05-17T08:15:53.076Z,962.75
2019-05-17T08:16:53.055Z,962.73
2019-05-17T08:17:53.033Z,962.75
2019-05-17T08:18:53.009Z,962.74
2019-05-17T08:19:52.988Z,962.72
2019-05-17T08:20:52.969Z,962.73
2019-05-17T08:21:52.945Z,962.78
2019-05-17T08:22:52.931Z,962.75
2019-05-17T08:23:52.905Z,962.75
2019-05-17T08:24:52.881Z,962.70
2019-05-17T08:25:56.185Z,962.71
2019-05-17T08:26:52.840Z,962.75
2019-05-17T08:27:52.810Z,962.73
2019-05-17T08:28:52.797Z,962.66
2019-05-17T08:29:52.774Z,962.69
2019-05-17T08:30:52.756Z,962.71
2019-05-17T08:31:52.737Z,962.70
2019-05-17T08:32:52.710Z,962.68
2019-05-17T08:33:52.690Z,962.72
2019-05-17T08:34:52.668Z,962.77
2019-05-17T08:35:52.649Z,962.68
2019-05-17T08:36:52.628Z,962.69
2019-05-17T08:37:52.600Z,962.74
2019-05-17T08:38:52.586Z,962.74
2019-05-17T08:39:52.566Z,962.70
2019-05-17T08:40:52.547Z,962.59
2019-05-17T08:41:52.536Z,962.58
2019-05-17T08:42:52.504Z,962.55
2019-05-17T08:43:52.485Z,962.49
2019-05-17T08:44:52.464Z,962.49
2019-05-17T08:45:52.444Z,962.45
2019-05-17T08:46:52.425Z,962.40
2019-05-17T08:47:52.405Z,962.45
2019-05-17T08:48:52.400Z,962.44
2019-05-17T08:49:52.372Z,962.42
2019-05-17T08:50:52.348Z,962.40
2019-05-17T08:51:52.334Z,962.38
2019-05-17T08:52:52.312Z,962.40
2019-05-17T08:53:52.292Z,962.39
2019-05-17T08:54:52.284Z,962.43
2019-05-17T08:55:52.257Z,962.42
2019-05-17T08:56:52.229Z,962.39
2019-05-17T08:57:52.207Z,962.44
2019-05-17T08:58:52.195Z,962.40
2019-05-17T08:59:52.176Z,962.41
2019-05-17T09:00:52.152Z,962.41
2019-05-17T09:01:52.134Z,962.43
2019-05-17T09:02:52.114Z,962.37
2019-05-17T09:03:52.093Z,962.43
2019-05-17T09:04:52.076Z,962.35
2019-05-17T09:05:52.867Z,962.36
2019-05-17T09:06:52.034Z,962.40
2019-05-17T09:07:52.014Z,962.37
2019-05-17T09:08:51.996Z,962.37
2019-05-17T09:09:51.975Z,962.36
2019-05-17T09:10:51.956Z,962.34
2019-05-17T09:11:51.936Z,962.35
2019-05-17T09:12:51.913Z,962.29
2019-05-17T09:13:57.917Z,962.27
2019-05-17T09:14:51.878Z,962.26
2019-05-17T09:15:51.861Z,962.23
2019-05-17T09:16:51.841Z,962.20
2019-05-17T09:17:51.816Z,962.23
2019-05-17T09:18:51.792Z,962.20
2019-05-17T09:19:54.336Z,962.19
2019-05-17T09:20:51.758Z,962.22
2019-05-17T09:21:51.737Z,962.15
2019-05-17T09:22:51.715Z,962.13
2019-05-17T09:23:51.705Z,962.13
2019-05-17T09:24:51.685Z,962.15
2019-05-17T09:25:51.656Z,962.18
2019-05-17T09:26:51.651Z,962.17
2019-05-17T09:27:51.623Z,962.13
2019-05-17T09:28:51.603Z,962.15
2019-05-17T09:29:51.583Z,962.13
2019-05-17T09:30:51.563Z,962.12
2019-05-17T09:31:51.546Z,962.13
2019-05-17T09:32:51.526Z,962.08
2019-05-17T09:33:51.508Z,962.10
2019-05-17T09:34:51.485Z,962.07
2019-05-17T09:35:51.469Z,962.10
2019-05-17T09:36:51.449Z,962.07
2019-05-17T09:37:51.426Z,962.08
2019-05-17T09:38:51.409Z,962.10
2019-05-17T09:39:51.388Z,962.16
2019-05-17T09:40:51.367Z,962.16
2019-05-17T09:41:51.352Z,962.16
2019-05-17T09:42:51.327Z,962.17
2019-05-17T09:43:51.314Z,962.16
2019-05-17T09:44:51.291Z,962.16
2019-05-17T09:45:51.273Z,962.11
2019-05-17T09:46:51.253Z,962.14
2019-05-17T09:47:51.232Z,962.07
2019-05-17T09:48:51.212Z,962.07
2019-05-17T09:49:51.189Z,962.04
2019-05-17T09:50:51.171Z,962.08
2019-05-17T09:51:51.157Z,962.00
2019-05-17T09:52:51.141Z,962.04
2019-05-17T09:53:51.117Z,962.08
2019-05-17T09:55:00.533Z,962.06
2019-05-17T09:56:51.189Z,961.96
2019-05-17T09:57:51.147Z,961.96
2019-05-17T09:59:37.877Z,961.91
2019-05-17T10:00:46.049Z,961.89
2019-05-17T10:02:40.143Z,961.90
2019-05-17T10:03:30.965Z,961.90
2019-05-17T10:04:30.706Z,961.87
2019-05-17T10:05:31.232Z,961.85
2019-05-17T10:06:30.669Z,961.84
2019-05-17T10:07:30.654Z,961.77
2019-05-17T10:08:30.634Z,961.82
2019-05-17T10:09:30.617Z,961.87
2019-05-17T10:10:30.601Z,961.81
2019-05-17T10:11:30.823Z,961.77
2019-05-17T10:12:30.564Z,961.80
2019-05-17T10:13:30.548Z,961.78
2019-05-17T10:14:31.418Z,961.80
2019-05-17T10:15:30.521Z,961.77
2019-05-17T10:16:30.830Z,961.79
2019-05-17T10:17:30.473Z,961.77
2019-05-17T10:18:30.459Z,961.78
2019-05-17T10:19:30.437Z,961.75
2019-05-17T10:20:30.427Z,961.80
2019-05-17T10:21:30.510Z,961.73
2019-05-17T10:22:30.591Z,961.78
2019-05-17T10:23:30.373Z,961.69
2019-05-17T10:24:37.959Z,961.66
2019-05-17T10:25:30.335Z,961.67
2019-05-17T10:26:30.524Z,961.69
2019-05-17T10:27:30.406Z,961.67
2019-05-17T10:28:30.292Z,961.68
2019-05-17T10:29:30.265Z,961.66
2019-05-17T10:30:30.247Z,961.70
2019-05-17T10:31:30.478Z,961.70
2019-05-17T10:32:30.869Z,961.63
2019-05-17T10:33:30.198Z,961.61
2019-05-17T10:34:30.183Z,961.64
2019-05-17T10:35:30.163Z,961.65
2019-05-17T10:36:30.146Z,961.65
2019-05-17T10:37:30.398Z,961.62
2019-05-17T10:38:30.163Z,961.60
2019-05-17T10:39:30.095Z,961.63
2019-05-17T10:40:30.081Z,961.65
2019-05-17T10:41:30.237Z,961.66
2019-05-17T10:42:30.565Z,961.68
2019-05-17T10:43:30.044Z,961.69
2019-05-17T10:44:43.650Z,961.70
2019-05-17T10:45:30.494Z,961.69
2019-05-17T10:46:30.216Z,961.71
2019-05-17T10:47:30.254Z,961.69
2019-05-17T10:48:30.230Z,961.68
2019-05-17T10:49:29.922Z,961.70
2019-05-17T10:50:30.026Z,961.70
2019-05-17T10:51:29.889Z,961.69
2019-05-17T10:52:30.125Z,961.66
2019-05-17T10:53:29.927Z,961.67
2019-05-17T10:54:30.196Z,961.69
2019-05-17T10:55:30.321Z,961.67
2019-05-17T10:56:29.803Z,961.65
2019-05-17T10:57:30.263Z,961.68
2019-05-17T10:58:29.815Z,961.67
2019-05-17T10:59:29.755Z,961.71
2019-05-17T11:00:30.286Z,961.67
2019-05-17T11:01:30.546Z,961.62
2019-05-17T11:02:30.366Z,961.66
2019-05-17T11:03:29.780Z,961.61
2019-05-17T11:04:29.669Z,961.62
2019-05-17T11:05:30.862Z,961.62
2019-05-17T11:06:30.236Z,961.64
2019-05-17T11:07:29.622Z,961.55
2019-05-17T11:08:29.612Z,961.59
2019-05-17T11:09:31.089Z,961.61
2019-05-17T11:10:29.576Z,961.57
2019-05-17T11:11:29.561Z,961.56
2019-05-17T11:12:29.545Z,961.61
2019-05-17T11:13:29.533Z,961.59
2019-05-17T11:14:29.564Z,961.61
2019-05-17T11:15:29.495Z,961.58
2019-05-17T11:16:29.481Z,961.58
2019-05-17T11:17:29.463Z,961.50
2019-05-17T11:18:29.444Z,961.57
2019-05-17T11:19:29.435Z,961.55
2019-05-17T11:20:29.419Z,961.59
2019-05-17T11:21:29.406Z,961.59
2019-05-17T11:22:29.418Z,961.61
2019-05-17T11:23:29.387Z,961.59
2019-05-17T11:24:29.360Z,961.64
2019-05-17T11:25:29.345Z,961.53
2019-05-17T11:26:29.335Z,961.52
2019-05-17T11:27:29.316Z,961.49
2019-05-17T11:28:29.301Z,961.51
2019-05-17T11:29:29.302Z,961.50
2019-05-17T11:30:29.271Z,961.52
2019-05-17T11:31:29.261Z,961.47
2019-05-17T11:32:29.274Z,961.43
2019-05-17T11:33:29.231Z,961.50
2019-05-17T11:34:29.215Z,961.47
2019-05-17T11:35:29.202Z,961.51
2019-05-17T11:36:29.190Z,961.51
2019-05-17T11:37:29.178Z,961.55
2019-05-17T11:38:29.163Z,961.46
2019-05-17T11:39:29.146Z,961.49
2019-05-17T11:40:29.141Z,961.58
2019-05-17T11:41:29.117Z,961.40
2019-05-17T11:42:29.104Z,961.34
2019-05-17T11:43:29.090Z,961.30
2019-05-17T11:44:29.077Z,961.30
2019-05-17T11:45:32.465Z,961.31
2019-05-17T11:46:36.242Z,961.29
2019-05-17T11:47:29.032Z,961.32
2019-05-17T11:48:29.020Z,961.31
2019-05-17T11:49:29.013Z,961.29
2019-05-17T11:50:29.008Z,961.29
2019-05-17T11:51:28.975Z,961.28
2019-05-17T11:52:28.967Z,961.29
2019-05-17T11:53:28.955Z,961.28
2019-05-17T11:54:28.949Z,961.30
2019-05-17T11:55:28.927Z,961.29
2019-05-17T11:56:28.906Z,961.29
2019-05-17T11:57:28.895Z,961.33
2019-05-17T11:58:28.880Z,961.32
2019-05-17T11:59:28.879Z,961.26
2019-05-17T12:00:28.855Z,961.33
2019-05-17T12:01:28.842Z,961.33
2019-05-17T12:02:28.825Z,961.35
2019-05-17T12:03:28.810Z,961.23
2019-05-17T12:04:28.797Z,961.28
2019-05-17T12:05:28.788Z,961.26
2019-05-17T12:06:28.766Z,961.17
2019-05-17T12:07:28.764Z,961.21
2019-05-17T12:08:28.744Z,961.16
2019-05-17T12:09:36.897Z,961.20
2019-05-17T12:10:28.753Z,961.17
2019-05-17T12:11:28.705Z,961.16
2019-05-17T12:12:28.693Z,961.13
2019-05-17T12:13:28.677Z,961.16
2019-05-17T12:14:28.665Z,961.19
2019-05-17T12:15:43.635Z,961.18
2019-05-17T12:16:28.635Z,961.18
2019-05-17T12:17:28.625Z,961.19
2019-05-17T12:18:28.606Z,961.17
2019-05-17T12:19:28.596Z,961.16
2019-05-17T12:20:28.578Z,961.16
2019-05-17T12:21:28.569Z,961.15
2019-05-17T12:22:28.557Z,961.12
2019-05-17T12:23:28.554Z,961.12
2019-05-17T12:24:28.533Z,961.05
2019-05-17T12:25:28.520Z,961.10
2019-05-17T12:26:28.504Z,961.15
2019-05-17T12:27:28.485Z,961.10
2019-05-17T12:28:28.481Z,961.10
2019-05-17T12:29:28.462Z,961.12
2019-05-17T12:30:28.491Z,961.17
2019-05-17T12:31:28.437Z,961.14
2019-05-17T12:32:28.437Z,961.15
2019-05-17T12:33:28.405Z,961.14